createdAt,value
2023-02-23T00:02:41.497Z,6.82
2023-02-23T00:05:35.154Z,6.75
2023-02-23T00:08:20.252Z,7.40
2023-02-23T00:11:07.875Z,6.50
2023-02-23T00:13:53.552Z,6.20
2023-02-23T00:16:39.005Z,6.22
2023-02-23T00:19:25.215Z,6.15
2023-02-23T00:26:20.641Z,6.35
2023-02-23T00:29:12.790Z,5.78
2023-02-23T00:36:11.576Z,5.90
2023-02-23T00:39:00.482Z,6.27
2023-02-23T00:41:46.698Z,5.78
2023-02-23T00:44:35.117Z,5.35
2023-02-23T00:47:20.557Z,6.30
2023-02-23T00:50:06.209Z,5.88
2023-02-23T00:52:51.447Z,5.88
2023-02-23T00:55:41.620Z,6.15
2023-02-23T00:58:27.213Z,5.75
2023-02-23T01:01:13.882Z,5.60
2023-02-23T01:03:59.093Z,4.68
2023-02-23T01:06:46.127Z,5.93
2023-02-23T01:09:31.266Z,5.85
2023-02-23T01:12:16.880Z,5.60
2023-02-23T01:15:03.525Z,6.43
2023-02-23T01:17:48.895Z,5.72
2023-02-23T01:20:36.155Z,6.15
2023-02-23T01:23:22.714Z,6.05
2023-02-23T01:26:25.679Z,5.68
2023-02-23T01:29:13.906Z,5.68
2023-02-23T01:31:58.996Z,6.22
2023-02-23T01:34:44.456Z,6.13
2023-02-23T01:37:30.066Z,6.70
2023-02-23T01:40:28.916Z,5.60
2023-02-23T01:43:26.033Z,6.00
2023-02-23T01:46:11.403Z,5.43
2023-02-23T01:48:57.537Z,5.78
2023-02-23T01:51:55.567Z,5.57
2023-02-23T01:54:51.002Z,5.97
2023-02-23T01:57:36.666Z,6.05
2023-02-23T02:00:26.144Z,6.72
2023-02-23T02:03:17.440Z,6.15
2023-02-23T02:06:04.594Z,6.32
2023-02-23T02:08:55.027Z,8.63
2023-02-23T02:11:44.393Z,7.22
2023-02-23T02:14:31.602Z,5.88
2023-02-23T02:17:30.041Z,6.90
2023-02-23T02:20:33.056Z,6.07
2023-02-23T02:23:18.484Z,5.90
2023-02-23T02:26:24.330Z,6.53
2023-02-23T02:29:33.587Z,6.63
2023-02-23T02:32:31.765Z,7.07
2023-02-23T02:35:50.537Z,6.25
2023-02-23T02:38:53.428Z,6.07
2023-02-23T02:41:53.538Z,6.10
2023-02-23T02:44:44.314Z,6.13
2023-02-23T02:47:37.790Z,5.90
2023-02-23T02:50:31.377Z,6.28
2023-02-23T02:53:35.932Z,6.35
2023-02-23T02:56:24.477Z,6.43
2023-02-23T02:59:35.253Z,6.70
2023-02-23T03:02:41.429Z,6.63
2023-02-23T03:05:55.853Z,6.63
2023-02-23T03:09:09.549Z,6.60
2023-02-23T03:12:35.304Z,7.25
2023-02-23T03:15:56.196Z,6.75
2023-02-23T03:19:19.722Z,6.10
2023-02-23T03:22:33.178Z,6.70
2023-02-23T03:25:53.342Z,6.43
2023-02-23T03:29:11.121Z,6.80
2023-02-23T03:32:24.449Z,6.43
2023-02-23T03:38:55.249Z,7.47
2023-02-23T03:42:01.866Z,7.00
2023-02-23T03:45:08.819Z,7.20
2023-02-23T03:48:14.919Z,7.88
2023-02-23T03:51:23.930Z,7.22
2023-02-23T03:54:48.920Z,7.50
2023-02-23T03:57:56.344Z,7.97
2023-02-23T04:01:06.808Z,8.02
2023-02-23T04:04:13.300Z,7.35
2023-02-23T04:07:20.785Z,8.65
2023-02-23T04:10:27.947Z,8.57
2023-02-23T04:13:22.345Z,9.05
2023-02-23T04:16:09.377Z,8.30
2023-02-23T04:18:55.156Z,8.38
2023-02-23T04:21:40.383Z,8.50
2023-02-23T04:24:25.926Z,8.38
2023-02-23T04:27:11.342Z,7.88
2023-02-23T04:29:56.840Z,7.93
2023-02-23T04:32:46.025Z,7.07
2023-02-23T04:35:31.619Z,7.40
2023-02-23T04:38:16.940Z,7.78
2023-02-23T04:41:02.163Z,8.27
2023-02-23T04:43:47.633Z,7.20
2023-02-23T04:46:33.067Z,7.20
2023-02-23T04:49:18.314Z,7.47
2023-02-23T04:52:03.984Z,6.78
2023-02-23T04:54:49.273Z,6.32
2023-02-23T04:57:35.686Z,7.30
2023-02-23T05:00:21.040Z,7.93
2023-02-23T05:03:06.584Z,6.95
2023-02-23T05:05:52.063Z,7.20
2023-02-23T05:08:37.367Z,8.23
2023-02-23T05:11:23.072Z,7.43
2023-02-23T05:14:09.236Z,7.30
2023-02-23T05:16:54.635Z,7.55
2023-02-23T05:19:40.013Z,7.68
2023-02-23T05:22:25.276Z,7.35
2023-02-23T05:25:11.878Z,7.53
2023-02-23T05:27:56.966Z,7.03
2023-02-23T05:30:42.528Z,7.15
2023-02-23T05:33:27.955Z,7.78
2023-02-23T05:36:16.571Z,7.68
2023-02-23T05:39:01.612Z,7.40
2023-02-23T05:41:47.330Z,8.27
2023-02-23T05:44:32.781Z,6.07
2023-02-23T05:47:18.444Z,6.70
2023-02-23T05:50:04.792Z,7.03
2023-02-23T05:52:50.100Z,6.30
2023-02-23T05:55:36.093Z,6.00
2023-02-23T05:58:21.514Z,6.45
2023-02-23T06:01:07.111Z,6.18
2023-02-23T06:03:52.515Z,6.47
2023-02-23T06:06:37.663Z,5.90
2023-02-23T06:09:23.152Z,7.13
2023-02-23T06:12:09.110Z,6.68
2023-02-23T06:14:54.775Z,7.05
2023-02-23T06:17:40.160Z,6.00
2023-02-23T06:20:25.700Z,8.35
2023-02-23T06:23:12.122Z,7.63
2023-02-23T06:25:58.532Z,7.60
2023-02-23T06:28:43.961Z,7.15
2023-02-23T06:31:29.554Z,7.40
2023-02-23T06:34:14.961Z,7.30
2023-02-23T06:37:00.442Z,7.68
2023-02-23T06:39:45.751Z,7.88
2023-02-23T06:42:31.208Z,7.15
2023-02-23T06:45:16.597Z,9.95
2023-02-23T06:48:02.226Z,8.98
2023-02-23T06:50:47.644Z,8.55
2023-02-23T06:53:33.552Z,8.45
2023-02-23T06:56:19.405Z,8.90
2023-02-23T06:59:04.379Z,8.43
2023-02-23T07:01:49.763Z,8.80
2023-02-23T07:04:35.010Z,8.32
2023-02-23T07:07:20.288Z,8.77
2023-02-23T07:10:07.189Z,8.38
2023-02-23T07:12:53.950Z,9.25
2023-02-23T07:15:40.668Z,7.65
2023-02-23T07:18:26.608Z,9.93
2023-02-23T07:21:11.757Z,8.77
2023-02-23T07:23:57.381Z,8.52
2023-02-23T07:26:47.080Z,9.50
2023-02-23T07:29:32.189Z,8.50
2023-02-23T07:32:17.773Z,8.77
2023-02-23T07:35:04.247Z,8.98
2023-02-23T07:37:49.803Z,8.77
2023-02-23T07:40:35.385Z,9.10
2023-02-23T07:43:24.150Z,9.02
2023-02-23T07:46:09.274Z,8.05
2023-02-23T07:48:54.716Z,9.48
2023-02-23T07:51:40.748Z,9.05
2023-02-23T07:54:26.497Z,8.38
2023-02-23T07:57:12.814Z,9.77
2023-02-23T07:59:57.989Z,9.85
2023-02-23T08:02:44.346Z,9.88
2023-02-23T08:05:29.814Z,10.40
2023-02-23T08:08:15.099Z,9.55
2023-02-23T08:11:02.070Z,10.20
2023-02-23T08:13:47.607Z,9.45
2023-02-23T08:16:34.020Z,10.65
2023-02-23T08:19:22.758Z,10.30
2023-02-23T08:22:10.133Z,10.10
2023-02-23T08:24:55.842Z,10.43
2023-02-23T08:27:41.474Z,11.57
2023-02-23T08:30:26.566Z,11.10
2023-02-23T08:33:11.862Z,10.50
2023-02-23T08:35:59.646Z,10.48
2023-02-23T08:38:44.751Z,12.38
2023-02-23T08:41:30.444Z,12.13
2023-02-23T08:44:15.780Z,12.73
2023-02-23T08:47:01.230Z,14.18
2023-02-23T08:49:46.611Z,14.13
2023-02-23T08:52:32.304Z,13.23
2023-02-23T08:55:18.535Z,12.85
2023-02-23T08:58:04.678Z,13.38
2023-02-23T09:00:50.206Z,13.55
2023-02-23T09:03:38.246Z,12.73
2023-02-23T09:06:25.939Z,13.68
2023-02-23T09:09:11.105Z,13.27
2023-02-23T09:11:58.419Z,14.10
2023-02-23T09:14:44.544Z,14.50
2023-02-23T09:17:30.209Z,14.93
2023-02-23T09:20:16.590Z,14.07
2023-02-23T09:23:01.922Z,16.30
2023-02-23T09:25:47.484Z,15.82
2023-02-23T09:28:33.985Z,15.73
2023-02-23T09:31:22.361Z,16.98
2023-02-23T09:34:09.365Z,16.10
2023-02-23T09:36:55.652Z,14.90
2023-02-23T09:39:40.745Z,17.13
2023-02-23T09:42:54.106Z,15.98
2023-02-23T09:45:47.497Z,16.17
2023-02-23T09:48:34.722Z,17.00
2023-02-23T09:51:23.445Z,16.25
2023-02-23T09:54:12.962Z,17.83
2023-02-23T09:57:03.471Z,17.90
2023-02-23T09:59:48.726Z,17.67
2023-02-23T10:02:39.640Z,17.67
2023-02-23T10:05:30.246Z,18.08
2023-02-23T10:08:39.531Z,19.00
2023-02-23T10:11:41.840Z,18.50
2023-02-23T10:15:06.572Z,17.58
2023-02-23T10:18:03.142Z,18.73
2023-02-23T10:21:23.458Z,18.60
2023-02-23T10:24:32.680Z,19.98
2023-02-23T10:27:21.604Z,19.17
2023-02-23T10:30:29.861Z,19.33
2023-02-23T10:33:36.162Z,20.85
2023-02-23T10:36:39.332Z,22.65
2023-02-23T10:42:17.172Z,21.05
2023-02-23T10:45:02.676Z,21.15
2023-02-23T10:47:52.800Z,21.42
2023-02-23T10:50:40.887Z,22.08
2023-02-23T10:53:32.715Z,22.23
2023-02-23T10:56:19.675Z,20.35
2023-02-23T10:59:05.129Z,22.05
2023-02-23T11:02:01.413Z,21.27
2023-02-23T11:04:57.193Z,20.50
2023-02-23T11:07:44.646Z,21.30
2023-02-23T11:10:30.962Z,20.67
2023-02-23T11:13:28.717Z,20.85
2023-02-23T11:16:19.575Z,19.65
2023-02-23T11:19:07.477Z,19.40
2023-02-23T11:21:53.221Z,19.23
2023-02-23T11:24:41.436Z,20.73
2023-02-23T11:27:27.997Z,17.70
2023-02-23T11:30:14.147Z,20.45
2023-02-23T11:33:09.538Z,18.08
2023-02-23T11:36:00.126Z,19.80
2023-02-23T11:38:47.648Z,19.67
2023-02-23T11:41:35.248Z,19.02
2023-02-23T11:44:24.724Z,19.58
2023-02-23T11:47:22.505Z,18.90
2023-02-23T11:50:19.903Z,21.25
2023-02-23T11:53:19.078Z,19.90
2023-02-23T11:56:12.524Z,19.42
2023-02-23T11:59:02.934Z,21.30
2023-02-23T12:01:52.569Z,21.10
2023-02-23T12:04:41.063Z,19.13
2023-02-23T12:07:38.856Z,19.10
2023-02-23T12:10:38.949Z,19.70
2023-02-23T12:13:45.371Z,20.33
2023-02-23T12:16:39.993Z,18.67
2023-02-23T12:19:39.076Z,19.85
2023-02-23T12:22:37.204Z,21.05
2023-02-23T12:25:43.398Z,19.65
2023-02-23T12:29:03.242Z,20.13
2023-02-23T12:32:08.308Z,20.73
2023-02-23T12:34:59.839Z,20.02
2023-02-23T12:37:48.042Z,21.20
2023-02-23T12:40:38.079Z,18.17
2023-02-23T12:43:49.169Z,20.08
2023-02-23T12:46:47.361Z,20.15
2023-02-23T12:49:44.191Z,21.63
2023-02-23T12:52:34.554Z,19.23
2023-02-23T12:55:41.470Z,19.75
2023-02-23T12:58:42.342Z,19.13
2023-02-23T13:01:33.324Z,19.00
2023-02-23T13:04:44.549Z,20.90
2023-02-23T13:07:42.564Z,21.70
2023-02-23T13:10:46.218Z,21.83
2023-02-23T13:13:48.489Z,20.52
2023-02-23T13:16:44.263Z,20.02
2023-02-23T13:19:42.463Z,17.38
2023-02-23T13:22:32.221Z,21.42
2023-02-23T13:25:25.157Z,19.65
2023-02-23T13:28:18.391Z,19.52
2023-02-23T13:31:05.881Z,21.45
2023-02-23T13:33:54.573Z,21.10
2023-02-23T13:36:42.041Z,20.08
2023-02-23T13:39:57.610Z,21.75
2023-02-23T13:42:58.659Z,20.10
2023-02-23T13:45:51.828Z,19.90
2023-02-23T13:48:59.336Z,20.58
2023-02-23T13:51:54.085Z,20.58
2023-02-23T13:54:57.248Z,19.20
2023-02-23T13:57:43.822Z,21.67
2023-02-23T14:00:29.562Z,20.35
2023-02-23T14:03:24.428Z,21.20
2023-02-23T14:06:14.712Z,19.00
2023-02-23T14:09:23.873Z,20.15
2023-02-23T14:12:23.247Z,20.08
2023-02-23T14:15:48.222Z,21.23
2023-02-23T14:18:34.015Z,20.88
2023-02-23T14:21:24.452Z,20.40
2023-02-23T14:24:24.581Z,21.27
2023-02-23T14:27:39.873Z,20.63
2023-02-23T14:30:29.341Z,21.88
2023-02-23T14:33:42.432Z,22.08
2023-02-23T14:36:34.748Z,22.55
2023-02-23T14:39:26.046Z,21.03
2023-02-23T14:42:21.666Z,23.75
2023-02-23T14:45:31.378Z,20.85
2023-02-23T14:48:19.441Z,23.98
2023-02-23T14:51:24.547Z,31.70
2023-02-23T14:54:15.504Z,39.88
2023-02-23T14:57:03.699Z,30.33
2023-02-23T14:59:57.905Z,25.67
2023-02-23T15:03:01.668Z,23.15
2023-02-23T15:05:56.007Z,21.35
2023-02-23T15:08:44.966Z,20.00
2023-02-23T15:11:31.564Z,20.10
2023-02-23T15:14:27.613Z,20.60
2023-02-23T15:17:17.874Z,18.92
2023-02-23T15:20:16.170Z,21.50
2023-02-23T15:23:04.828Z,19.60
2023-02-23T15:25:51.161Z,20.10
2023-02-23T15:28:40.847Z,19.95
2023-02-23T15:31:30.986Z,22.30
2023-02-23T15:34:20.381Z,21.58
2023-02-23T15:37:13.396Z,21.30
2023-02-23T15:40:10.557Z,21.08
2023-02-23T15:43:00.669Z,20.80
2023-02-23T15:45:54.618Z,20.05
2023-02-23T15:48:45.881Z,20.33
2023-02-23T15:51:33.878Z,20.77
2023-02-23T15:54:29.578Z,19.80
2023-02-23T15:57:28.784Z,20.10
2023-02-23T16:00:32.515Z,20.27
2023-02-23T16:03:32.224Z,21.98
2023-02-23T16:06:25.345Z,19.85
2023-02-23T16:09:24.047Z,20.42
2023-02-23T16:12:14.833Z,21.48
2023-02-23T16:15:21.205Z,17.80
2023-02-23T16:18:13.170Z,14.77
2023-02-23T16:21:00.294Z,17.73
2023-02-23T16:23:49.658Z,16.98
2023-02-23T16:26:46.955Z,16.35
2023-02-23T16:29:41.406Z,16.30
2023-02-23T16:32:34.719Z,16.95
2023-02-23T16:35:20.759Z,17.75
2023-02-23T16:38:14.214Z,16.38
2023-02-23T16:40:59.449Z,16.55
2023-02-23T16:43:47.387Z,15.52
2023-02-23T16:46:57.594Z,15.07
2023-02-23T16:49:43.032Z,15.70
2023-02-23T16:52:28.073Z,16.58
2023-02-23T16:55:18.565Z,15.57
2023-02-23T16:58:07.625Z,17.13
2023-02-23T17:00:53.655Z,17.05
2023-02-23T17:03:47.309Z,16.23
2023-02-23T17:06:36.624Z,17.58
2023-02-23T17:09:22.071Z,16.73
2023-02-23T17:12:09.886Z,15.52
2023-02-23T17:14:55.037Z,17.48
2023-02-23T17:17:40.648Z,17.67
2023-02-23T17:20:27.834Z,15.93
2023-02-23T17:23:12.980Z,16.35
2023-02-23T17:25:58.568Z,15.75
2023-02-23T17:28:44.469Z,19.80
2023-02-23T17:31:31.970Z,16.83
2023-02-23T17:34:17.609Z,16.75
2023-02-23T17:37:02.630Z,14.50
2023-02-23T17:39:50.964Z,15.98
2023-02-23T17:42:36.421Z,16.42
2023-02-23T17:45:22.690Z,15.80
2023-02-23T17:48:07.811Z,16.02
2023-02-23T17:51:02.148Z,18.52
2023-02-23T17:53:47.705Z,17.08
2023-02-23T17:56:33.077Z,17.02
2023-02-23T17:59:18.605Z,17.23
2023-02-23T18:02:05.140Z,16.98
2023-02-23T18:04:51.777Z,15.82
2023-02-23T18:07:37.550Z,17.23
2023-02-23T18:10:25.353Z,17.38
2023-02-23T18:13:10.750Z,16.63
2023-02-23T18:16:09.046Z,15.70
2023-02-23T18:18:56.367Z,15.48
2023-02-23T18:21:41.762Z,15.63
2023-02-23T18:24:28.218Z,15.68
2023-02-23T18:27:13.396Z,14.27
2023-02-23T18:29:59.160Z,15.50
2023-02-23T18:32:44.630Z,15.13
2023-02-23T18:35:38.952Z,15.73
2023-02-23T18:38:24.093Z,15.10
2023-02-23T18:41:10.146Z,18.45
2023-02-23T18:43:55.435Z,19.88
2023-02-23T18:46:42.421Z,20.65
2023-02-23T18:49:27.839Z,19.52
2023-02-23T18:52:13.181Z,20.95
2023-02-23T18:54:59.326Z,19.65
2023-02-23T18:57:45.021Z,20.63
2023-02-23T19:00:33.968Z,18.95
2023-02-23T19:03:19.415Z,18.20
2023-02-23T19:06:10.438Z,19.40
2023-02-23T19:08:57.402Z,19.48
2023-02-23T19:11:43.370Z,19.73
2023-02-23T19:14:48.003Z,18.63
2023-02-23T19:17:35.711Z,19.42
2023-02-23T19:20:22.861Z,18.52
2023-02-23T19:23:10.115Z,18.80
2023-02-23T19:25:55.704Z,17.30
2023-02-23T19:28:40.802Z,18.30
2023-02-23T19:31:27.245Z,20.63
2023-02-23T19:34:13.794Z,19.05
2023-02-23T19:36:59.254Z,17.42
2023-02-23T19:39:46.331Z,17.70
2023-02-23T19:42:32.738Z,17.35
2023-02-23T19:45:18.394Z,18.25
2023-02-23T19:48:04.107Z,18.13
2023-02-23T19:50:49.654Z,16.58
2023-02-23T19:53:35.560Z,17.05
2023-02-23T19:56:20.994Z,19.52
2023-02-23T19:59:06.501Z,19.73
2023-02-23T20:01:51.847Z,21.05
2023-02-23T20:04:37.407Z,20.42
2023-02-23T20:07:22.569Z,20.17
2023-02-23T20:10:10.208Z,19.40
2023-02-23T20:12:55.908Z,18.35
2023-02-23T20:15:41.171Z,17.80
2023-02-23T20:18:28.334Z,15.57
2023-02-23T20:21:20.420Z,16.27
2023-02-23T20:24:06.178Z,16.42
2023-02-23T20:26:53.264Z,17.73
2023-02-23T20:29:38.738Z,16.02
2023-02-23T20:32:24.250Z,16.20
2023-02-23T20:35:14.096Z,17.08
2023-02-23T20:37:59.977Z,16.45
2023-02-23T20:40:45.386Z,16.83
2023-02-23T20:43:31.239Z,17.00
2023-02-23T20:46:17.276Z,16.48
2023-02-23T20:49:04.105Z,17.13
2023-02-23T20:51:49.808Z,18.08
2023-02-23T20:54:35.013Z,15.38
2023-02-23T20:57:20.396Z,16.10
2023-02-23T21:00:10.740Z,16.15
2023-02-23T21:02:55.953Z,17.38
2023-02-23T21:05:41.916Z,15.15
2023-02-23T21:08:28.702Z,16.80
2023-02-23T21:11:14.219Z,13.35
2023-02-23T21:14:00.242Z,14.90
2023-02-23T21:16:46.214Z,15.68
2023-02-23T21:19:32.898Z,16.48
2023-02-23T21:22:17.915Z,13.63
2023-02-23T21:25:04.312Z,15.27
2023-02-23T21:27:50.265Z,16.17
2023-02-23T21:30:35.466Z,16.35
2023-02-23T21:33:20.950Z,17.63
2023-02-23T21:36:09.601Z,17.17
2023-02-23T21:38:54.868Z,15.10
2023-02-23T21:41:40.296Z,15.15
2023-02-23T21:44:25.915Z,16.00
2023-02-23T21:47:11.034Z,15.68
2023-02-23T21:49:56.607Z,16.10
2023-02-23T21:52:43.714Z,16.48
2023-02-23T21:55:29.377Z,17.05
2023-02-23T21:58:14.629Z,18.92
2023-02-23T22:01:00.049Z,18.95
2023-02-23T22:03:46.325Z,19.25
2023-02-23T22:06:36.873Z,19.58
2023-02-23T22:09:22.101Z,18.35
2023-02-23T22:12:07.765Z,18.85
2023-02-23T22:14:52.992Z,18.63
2023-02-23T22:17:38.627Z,18.48
2023-02-23T22:20:24.706Z,20.65
2023-02-23T22:23:09.830Z,18.65
2023-02-23T22:25:55.365Z,19.52
2023-02-23T22:28:40.724Z,19.38
2023-02-23T22:31:26.212Z,19.58
2023-02-23T22:34:11.454Z,19.33
2023-02-23T22:36:56.770Z,20.10
2023-02-23T22:39:43.166Z,20.25
2023-02-23T22:42:35.269Z,19.15
2023-02-23T22:45:20.676Z,17.42
2023-02-23T22:48:07.273Z,17.73
2023-02-23T22:50:52.402Z,19.75
2023-02-23T22:53:38.121Z,20.02
2023-02-23T22:56:23.734Z,17.80
2023-02-23T22:59:10.993Z,18.88
2023-02-23T23:01:56.433Z,19.20
2023-02-23T23:04:41.972Z,18.95
2023-02-23T23:07:27.878Z,18.85
2023-02-23T23:10:15.714Z,19.20
2023-02-23T23:13:03.101Z,19.52
2023-02-23T23:15:49.342Z,18.88
2023-02-23T23:18:35.996Z,19.20
2023-02-23T23:21:24.607Z,18.65
2023-02-23T23:24:13.204Z,18.88
2023-02-23T23:27:01.439Z,17.98
2023-02-23T23:29:48.031Z,18.20
2023-02-23T23:32:34.403Z,18.33
2023-02-23T23:35:21.833Z,15.70
2023-02-23T23:38:08.776Z,17.42
2023-02-23T23:40:54.084Z,20.30
2023-02-23T23:43:46.315Z,17.63
2023-02-23T23:46:35.357Z,17.08
2023-02-23T23:49:25.411Z,17.35
2023-02-23T23:52:10.489Z,17.13
2023-02-23T23:54:56.969Z,18.13
2023-02-23T23:57:42.654Z,17.27
